La Blanca, Texas
Current Conditions -  °F | °C
As of 2:15 PM on Wednesday 28 Jan 2015 (Local Time) from KT65 Reporting Station
Clear Clear  
Wind Chill: 76°   Ceiling: Unl
Heat Index: 76°   Visibility: 10mi
Dew Point: 51°   Wind: 12mph
Humidity: 41%   Direction: 150°SSE
Pressure: 30.13"   Gusts: NA
Location:  26.29°N, 98.04°W
Report Text: KT65 282015Z AUTO 15010KT 10SM CLR 24/10 A3013 RMK AO2 T02440104
Loading
Personal Weather Stations






























Interactive Weather Map New forecast layout! Learn more

10-Day Weather Forecast

Advertisements
Track Severe Weather on mobile